< < Back
Terminal Aerodrome Forecast


Current Version              Previous Versions:   1  2  3  4  5  6  7  8  9  

Terminal Aerodrome Forecast

750
FTAK31 PAJN 230500
TAFAHN
TAF
PAHN 230520Z 2306/2406 30008KT P6SM OVC025
     FM231700 30010KT P6SM SCT060
     FM240000 30005KT P6SM BKN100
      AMD LTD TO CLD VIS AND WIND=

Latest METAR

942
SAUS70 KWBC 231100
MTRAHN
METAR KAHN 231051Z AUTO 00000KT 10SM CLR 04/03 A3011 RMK AO2 SLP196
T00440033 TSNO


USA.gov is the U.S. government's official web portal to all federal, state and local government web resources and services.